Time;durP1;ratioP1;P1;durP2;ratioP2;P2;SDS_P1;SDS_P2;PMS_P1;PMS_P2;Temp;Humidity;BMP_temperature;BMP_pressure;BME280_temperature;BME280_humidity;BME280_pressure;Samples;Min_cycle;Max_cycle;Signal;HPM_P1;HPM_P2
2022/03/08 00:01:21;;;;;;;13.25;7.35;;;;;;;-0.97;100.00;102539.19;4924898;28;20135;-67
2022/03/08 00:03:46;;;;;;;11.15;7.68;;;;;;;-0.93;100.00;102553.94;4921266;28;20457;-67
2022/03/08 00:06:12;;;;;;;12.32;6.50;;;;;;;-0.93;100.00;102548.63;4923475;28;20607;-67
2022/03/08 00:08:37;;;;;;;13.00;8.00;;;;;;;-1.03;100.00;102536.94;4909797;28;20051;-67
2022/03/08 00:11:03;;;;;;;14.30;8.00;;;;;;;-1.22;100.00;102530.16;4926567;28;20039;-67
2022/03/08 00:13:30;;;;;;;13.30;7.78;;;;;;;-1.38;100.00;102539.94;4923376;28;20090;-67
2022/03/08 00:15:55;;;;;;;14.00;7.90;;;;;;;-1.44;100.00;102537.66;4923972;28;22536;-67
2022/03/08 00:18:20;;;;;;;16.17;8.23;;;;;;;-1.41;100.00;102539.28;4918039;28;20047;-67
2022/03/08 00:20:46;;;;;;;17.83;8.50;;;;;;;-1.24;100.00;102534.66;4912725;28;20093;-67
2022/03/08 00:23:12;;;;;;;18.50;8.88;;;;;;;-1.03;100.00;102531.63;4905923;28;20094;-67
2022/03/08 00:25:37;;;;;;;12.05;8.07;;;;;;;-0.99;100.00;102525.19;4907734;28;20055;-67
2022/03/08 00:28:03;;;;;;;12.45;8.32;;;;;;;-1.04;100.00;102537.88;4922202;28;20594;-67
2022/03/08 00:30:29;;;;;;;14.55;8.30;;;;;;;-1.08;100.00;102531.09;4905951;28;20062;-67
2022/03/08 00:32:55;;;;;;;13.43;8.07;;;;;;;-1.07;100.00;102536.28;4923306;28;20049;-67
2022/03/08 00:35:22;;;;;;;12.07;7.82;;;;;;;-1.09;100.00;102537.31;4907591;28;20047;-67
2022/03/08 00:37:49;;;;;;;18.80;8.85;;;;;;;-1.15;100.00;102540.34;4922831;28;20053;-68
2022/03/08 00:40:16;;;;;;;17.83;8.75;;;;;;;-1.20;100.00;102530.88;4905428;28;20140;-67
2022/03/08 00:42:42;;;;;;;13.88;8.15;;;;;;;-1.13;100.00;102541.09;4907442;28;20058;-67
2022/03/08 00:45:08;;;;;;;14.07;8.85;;;;;;;-1.06;100.00;102532.66;4922445;28;20039;-67
2022/03/08 00:47:35;;;;;;;15.40;9.70;;;;;;;-1.07;100.00;102530.97;4895389;28;20165;-67
2022/03/08 00:50:01;;;;;;;13.73;8.50;;;;;;;-1.09;100.00;102522.31;4921856;28;20169;-67
2022/03/08 00:52:26;;;;;;;17.63;9.38;;;;;;;-1.20;100.00;102525.59;4904570;28;20051;-67
2022/03/08 00:54:52;;;;;;;14.00;9.63;;;;;;;-1.26;100.00;102530.44;4924690;28;20041;-67
2022/03/08 00:57:18;;;;;;;13.68;8.82;;;;;;;-1.36;100.00;102516.94;4920273;28;20066;-67
2022/03/08 00:59:43;;;;;;;19.17;9.57;;;;;;;-1.36;100.00;102519.56;4920949;28;20031;-66
2022/03/08 01:02:08;;;;;;;19.85;9.60;;;;;;;-1.45;100.00;102520.97;4936565;28;20034;-67
2022/03/08 01:04:34;;;;;;;15.48;9.65;;;;;;;-1.60;100.00;102519.25;4907441;28;20051;-67
2022/03/08 01:06:59;;;;;;;14.40;8.63;;;;;;;-1.72;100.00;102518.22;4922132;28;20066;-67
2022/03/08 01:09:25;;;;;;;15.73;9.80;;;;;;;-1.84;100.00;102518.94;4907265;28;20086;-67
2022/03/08 01:11:50;;;;;;;16.15;9.13;;;;;;;-1.93;100.00;102516.81;4921685;28;20035;-66
2022/03/08 01:14:16;;;;;;;16.77;9.18;;;;;;;-2.09;100.00;102508.13;4906524;28;20086;-67
2022/03/08 01:16:41;;;;;;;14.43;9.23;;;;;;;-2.29;100.00;102522.47;4923397;28;20031;-66
2022/03/08 01:19:07;;;;;;;15.38;10.07;;;;;;;-2.50;100.00;102517.47;4922233;28;20039;-67
2022/03/08 01:21:37;;;;;;;22.65;10.68;;;;;;;-2.67;100.00;102520.22;4908420;28;20063;-67
2022/03/08 01:24:04;;;;;;;16.73;9.52;;;;;;;-2.77;100.00;102522.53;4923676;28;20134;-67
2022/03/08 01:26:30;;;;;;;20.58;10.15;;;;;;;-2.86;100.00;102514.28;4906295;28;20054;-67
2022/03/08 01:28:56;;;;;;;19.42;11.23;;;;;;;-2.78;100.00;102510.25;4924296;28;20599;-67
2022/03/08 01:31:22;;;;;;;21.13;11.55;;;;;;;-2.67;100.00;102505.25;4905639;28;20059;-67
2022/03/08 01:33:49;;;;;;;18.27;11.63;;;;;;;-2.56;100.00;102514.31;4921368;28;20043;-67
2022/03/08 01:36:15;;;;;;;21.60;12.52;;;;;;;-2.49;100.00;102494.56;4907418;28;20057;-67
2022/03/08 01:38:41;;;;;;;19.98;11.93;;;;;;;-2.51;100.00;102504.38;4889017;28;20026;-67
2022/03/08 01:41:06;;;;;;;20.02;12.32;;;;;;;-2.56;100.00;102498.50;4920072;28;20051;-67
2022/03/08 01:43:32;;;;;;;18.33;11.27;;;;;;;-2.52;100.00;102494.78;4904727;28;20082;-67
2022/03/08 01:45:57;;;;;;;17.00;11.98;;;;;;;-2.56;100.00;102491.47;4924906;28;20039;-67
2022/03/08 01:48:22;;;;;;;28.60;12.90;;;;;;;-2.56;100.00;102493.22;4907804;28;20055;-67
2022/03/08 01:50:48;;;;;;;21.33;13.55;;;;;;;-2.59;100.00;102483.72;4918382;28;20040;-67
2022/03/08 01:53:13;;;;;;;21.55;14.23;;;;;;;-2.62;100.00;102485.69;4893280;28;20047;-67
2022/03/08 01:55:39;;;;;;;23.55;13.60;;;;;;;-2.68;100.00;102482.44;4921315;28;20547;-67
2022/03/08 01:58:04;;;;;;;22.58;12.48;;;;;;;-2.74;100.00;102479.28;4909906;28;20059;-67
2022/03/08 02:00:31;;;;;;;23.13;12.90;;;;;;;-2.85;100.00;102477.25;4919842;28;20114;-67
2022/03/08 02:02:57;;;;;;;25.48;14.10;;;;;;;-2.90;100.00;102484.59;4897479;28;20073;-67
2022/03/08 02:05:23;;;;;;;24.45;12.88;;;;;;;-2.95;100.00;102476.06;4910080;28;20075;-67
2022/03/08 02:07:49;;;;;;;26.73;13.20;;;;;;;-3.01;100.00;102465.88;4922086;28;20058;-67
2022/03/08 02:10:14;;;;;;;23.38;13.80;;;;;;;-3.09;100.00;102474.19;4919267;28;20051;-67
2022/03/08 02:12:40;;;;;;;21.50;14.52;;;;;;;-3.14;100.00;102468.31;4935806;28;20039;-67
2022/03/08 02:15:20;;;;;;;21.25;13.75;;;;;;;-3.20;100.00;102466.88;4905549;28;20089;-67
2022/03/08 02:17:45;;;;;;;25.90;15.10;;;;;;;-3.21;100.00;102467.81;4921698;28;20042;-67
2022/03/08 02:20:11;;;;;;;21.35;14.75;;;;;;;-3.24;100.00;102465.34;4904033;28;20054;-67
2022/03/08 02:22:40;;;;;;;26.02;15.65;;;;;;;-3.22;100.00;102468.75;4922298;28;20043;-67
2022/03/08 02:25:06;;;;;;;23.63;14.95;;;;;;;-3.27;100.00;102462.88;4921672;28;20035;-68
2022/03/08 02:27:31;;;;;;;25.80;15.07;;;;;;;-3.41;100.00;102454.84;4906983;28;20117;-67
2022/03/08 02:29:57;;;;;;;24.45;15.05;;;;;;;-3.55;100.00;102467.91;4907721;28;20144;-67
2022/03/08 02:32:23;;;;;;;21.60;14.88;;;;;;;-3.70;100.00;102465.16;4891254;28;23665;-67
2022/03/08 02:34:48;;;;;;;26.55;15.38;;;;;;;-3.69;100.00;102469.50;4922546;28;20054;-67
2022/03/08 02:37:14;;;;;;;26.63;16.80;;;;;;;-3.63;100.00;102468.34;4906984;28;21167;-67
2022/03/08 02:39:39;;;;;;;27.75;17.42;;;;;;;-3.57;100.00;102467.16;4920695;28;20041;-67
2022/03/08 02:42:06;;;;;;;28.08;16.00;;;;;;;-3.58;100.00;102466.28;4904363;28;20055;-67
2022/03/08 02:44:33;;;;;;;25.25;16.45;;;;;;;-3.61;100.00;102456.78;4920570;28;20023;-67
2022/03/08 02:47:03;;;;;;;26.88;16.23;;;;;;;-3.61;100.00;102462.06;4916454;28;20027;-68
2022/03/08 02:49:29;;;;;;;27.88;18.75;;;;;;;-3.47;100.00;102463.97;4905122;28;20059;-67
2022/03/08 02:51:56;;;;;;;29.00;18.95;;;;;;;-3.37;100.00;102461.66;4920532;28;20142;-67
2022/03/08 02:54:22;;;;;;;32.22;19.10;;;;;;;-3.37;100.00;102459.91;4905592;28;20066;-67
2022/03/08 02:56:47;;;;;;;30.23;19.00;;;;;;;-3.35;100.00;102451.91;4914666;28;20031;-67
2022/03/08 02:59:20;;;;;;;29.50;19.95;;;;;;;-3.25;100.00;102458.38;4902939;28;20103;-67
2022/03/08 03:01:45;;;;;;;37.05;19.85;;;;;;;-3.18;100.00;102459.75;4908186;28;20246;-67
2022/03/08 03:04:10;;;;;;;32.33;20.38;;;;;;;-3.15;100.00;102462.22;4904264;28;20695;-68
2022/03/08 03:06:36;;;;;;;35.22;20.98;;;;;;;-3.15;100.00;102464.00;4920373;28;20046;-67
2022/03/08 03:09:02;;;;;;;33.45;22.63;;;;;;;-3.20;100.00;102456.31;4903870;28;20090;-67
2022/03/08 03:11:28;;;;;;;36.15;21.35;;;;;;;-3.29;100.00;102454.22;4904839;28;20050;-67
2022/03/08 03:13:53;;;;;;;35.08;20.13;;;;;;;-3.39;100.00;102451.22;4919884;28;20054;-67
2022/03/08 03:16:19;;;;;;;33.33;20.42;;;;;;;-3.43;100.00;102446.22;4904564;28;22489;-67
2022/03/08 03:18:44;;;;;;;33.70;21.02;;;;;;;-3.50;100.00;102447.47;4919518;28;20035;-67
2022/03/08 03:21:10;;;;;;;34.60;21.45;;;;;;;-3.53;100.00;102442.34;4906242;28;22737;-67
2022/03/08 03:23:35;;;;;;;37.58;20.85;;;;;;;-3.58;100.00;102449.63;4920277;28;20186;-67
2022/03/08 03:26:00;;;;;;;31.23;20.40;;;;;;;-3.65;100.00;102449.13;4913089;28;20031;-67
2022/03/08 03:28:26;;;;;;;34.95;21.17;;;;;;;-3.67;100.00;102451.84;4909533;28;20055;-67
2022/03/08 03:30:52;;;;;;;36.92;22.73;;;;;;;-3.68;100.00;102450.16;4920182;28;20752;-67
2022/03/08 03:33:17;;;;;;;38.80;23.73;;;;;;;-3.67;100.00;102451.84;4906799;28;20062;-67
2022/03/08 03:35:42;;;;;;;43.13;22.60;;;;;;;-3.57;100.00;102451.38;4923569;28;20232;-68
2022/03/08 03:38:08;;;;;;;36.92;24.23;;;;;;;-3.53;100.00;102455.53;4912059;28;20063;-67
2022/03/08 03:40:33;;;;;;;36.85;24.65;;;;;;;-3.52;100.00;102449.31;4927790;28;20065;-67
2022/03/08 03:42:59;;;;;;;39.67;23.05;;;;;;;-3.55;100.00;102450.31;4906903;28;20066;-67
2022/03/08 03:45:24;;;;;;;37.47;23.35;;;;;;;-3.62;100.00;102455.06;4922810;28;20051;-67
2022/03/08 03:47:50;;;;;;;38.20;24.17;;;;;;;-3.69;100.00;102458.13;4922769;28;20050;-67
2022/03/08 03:50:15;;;;;;;39.88;25.92;;;;;;;-3.70;100.00;102459.91;4897772;28;20056;-66
2022/03/08 03:52:41;;;;;;;42.33;25.13;;;;;;;-3.73;100.00;102456.56;4922987;28;20047;-68
2022/03/08 03:55:06;;;;;;;39.45;24.95;;;;;;;-3.78;100.00;102454.19;4909972;28;20102;-67
2022/03/08 03:57:32;;;;;;;37.22;23.90;;;;;;;-3.80;100.00;102458.69;4922581;28;20221;-67
2022/03/08 03:59:57;;;;;;;40.90;25.15;;;;;;;-3.80;100.00;102447.28;4908124;28;20081;-66
2022/03/08 04:02:23;;;;;;;38.25;25.02;;;;;;;-3.76;100.00;102447.03;4924674;28;20039;-66
2022/03/08 04:04:48;;;;;;;39.60;26.15;;;;;;;-3.71;100.00;102447.66;4907968;28;20055;-66
2022/03/08 04:07:14;;;;;;;50.33;27.20;;;;;;;-3.73;100.00;102446.88;4923000;28;20039;-66
2022/03/08 04:09:39;;;;;;;39.00;24.70;;;;;;;-3.76;100.00;102440.94;4923357;28;20031;-68
2022/03/08 04:12:05;;;;;;;41.65;25.90;;;;;;;-3.82;100.00;102439.50;4906724;28;20950;-66
2022/03/08 04:14:31;;;;;;;47.90;26.98;;;;;;;-3.84;100.00;102439.56;4923169;28;20043;-67
2022/03/08 04:16:56;;;;;;;44.55;26.83;;;;;;;-3.86;100.00;102435.28;4890126;28;20149;-67
2022/03/08 04:19:22;;;;;;;42.50;26.48;;;;;;;-3.83;100.00;102437.75;4923549;28;20026;-67
2022/03/08 04:21:47;;;;;;;48.47;27.63;;;;;;;-3.79;100.00;102443.72;4908544;28;20143;-67
2022/03/08 04:24:12;;;;;;;43.38;26.80;;;;;;;-3.76;100.00;102436.50;4923423;28;20105;-67
2022/03/08 04:26:38;;;;;;;44.17;27.08;;;;;;;-3.76;100.00;102433.88;4920110;28;20047;-67
2022/03/08 04:29:03;;;;;;;50.63;29.80;;;;;;;-3.77;100.00;102432.19;4907272;28;20058;-67
2022/03/08 04:31:29;;;;;;;48.65;29.75;;;;;;;-3.74;100.00;102429.41;4923363;28;20055;-67
2022/03/08 04:33:54;;;;;;;49.60;29.23;;;;;;;-3.69;100.00;102427.34;4907253;28;20624;-67
2022/03/08 04:36:20;;;;;;;52.03;30.27;;;;;;;-3.67;100.00;102429.94;4923266;28;20047;-67
2022/03/08 04:38:45;;;;;;;50.13;31.15;;;;;;;-3.64;100.00;102430.63;4907541;28;20569;-67
2022/03/08 04:41:10;;;;;;;54.53;30.45;;;;;;;-3.64;100.00;102435.88;4922291;28;20031;-67
2022/03/08 04:43:36;;;;;;;50.28;29.80;;;;;;;-3.69;100.00;102429.16;4888559;28;20056;-67
2022/03/08 04:46:01;;;;;;;55.78;32.00;;;;;;;-3.60;100.00;102441.84;4922976;28;20104;-67
2022/03/08 04:48:27;;;;;;;55.80;31.77;;;;;;;-3.55;100.00;102445.06;4920911;28;20039;-67
2022/03/08 04:50:52;;;;;;;43.97;29.90;;;;;;;-3.50;100.00;102442.19;4905543;28;20144;-67
2022/03/08 04:53:18;;;;;;;51.58;29.10;;;;;;;-3.45;100.00;102442.78;4921763;28;20035;-67
2022/03/08 04:55:43;;;;;;;59.00;35.17;;;;;;;-3.33;100.00;102450.03;4905749;28;20089;-67
2022/03/08 04:58:09;;;;;;;56.50;33.70;;;;;;;-3.32;100.00;102446.47;4923752;28;20042;-67
2022/03/08 05:00:34;;;;;;;62.92;34.70;;;;;;;-3.34;100.00;102444.84;4904216;28;20065;-67
2022/03/08 05:02:59;;;;;;;62.13;32.67;;;;;;;-3.26;100.00;102443.50;4919184;28;20082;-67
2022/03/08 05:05:25;;;;;;;52.72;32.63;;;;;;;-3.23;100.00;102443.34;4904712;28;21306;-67
2022/03/08 05:07:50;;;;;;;51.10;31.10;;;;;;;-3.19;100.00;102442.22;4921381;28;20031;-67
2022/03/08 05:10:16;;;;;;;49.75;30.45;;;;;;;-3.14;100.00;102440.19;4921180;28;21487;-67
2022/03/08 05:12:42;;;;;;;62.00;33.22;;;;;;;-3.06;100.00;102436.28;4905291;28;22613;-67
2022/03/08 05:15:08;;;;;;;51.00;30.85;;;;;;;-3.08;100.00;102432.88;4922456;28;20038;-67
2022/03/08 05:17:34;;;;;;;51.85;30.25;;;;;;;-3.09;100.00;102432.00;4906786;28;20054;-67
2022/03/08 05:19:59;;;;;;;53.40;31.58;;;;;;;-3.02;100.00;102428.13;4922550;28;20031;-67
2022/03/08 05:22:25;;;;;;;53.70;31.08;;;;;;;-2.97;100.00;102422.59;4906583;28;20051;-67
2022/03/08 05:24:50;;;;;;;52.30;30.17;;;;;;;-2.92;100.00;102417.88;4922184;28;20035;-67
2022/03/08 05:27:16;;;;;;;50.60;30.00;;;;;;;-2.84;100.00;102420.97;4920023;28;20054;-67
2022/03/08 05:29:41;;;;;;;54.92;31.55;;;;;;;-2.73;100.00;102417.72;4912476;28;20047;-67
2022/03/08 05:32:07;;;;;;;57.58;29.40;;;;;;;-2.73;100.00;102417.72;4922065;28;20058;-67
2022/03/08 05:34:33;;;;;;;49.85;28.20;;;;;;;-2.67;100.00;102412.06;4901377;28;20455;-67
2022/03/08 05:36:59;;;;;;;48.80;27.23;;;;;;;-2.69;100.00;102414.78;4907451;28;20035;-67
2022/03/08 05:39:24;;;;;;;51.42;27.85;;;;;;;-2.70;100.00;102418.38;4904716;28;20062;-67
2022/03/08 05:41:50;;;;;;;50.35;28.55;;;;;;;-2.72;100.00;102425.53;4912114;28;20043;-68
2022/03/08 05:44:16;;;;;;;48.22;27.17;;;;;;;-2.74;100.00;102422.13;4908413;28;20043;-67
2022/03/08 05:46:42;;;;;;;48.40;26.83;;;;;;;-2.70;100.00;102418.38;4905314;28;20082;-67
2022/03/08 05:49:07;;;;;;;53.05;29.08;;;;;;;-2.62;100.00;102425.00;4905113;28;20062;-67
2022/03/08 05:51:33;;;;;;;46.55;26.67;;;;;;;-2.68;100.00;102416.47;4905681;28;20118;-66
2022/03/08 05:53:58;;;;;;;45.95;27.15;;;;;;;-2.71;100.00;102416.66;4925243;28;21119;-67
2022/03/08 05:56:24;;;;;;;47.00;26.77;;;;;;;-2.66;100.00;102419.91;4897875;28;20515;-67
2022/03/08 05:58:49;;;;;;;52.65;27.00;;;;;;;-2.61;100.00;102431.97;4919762;28;21244;-66
2022/03/08 06:01:15;;;;;;;43.35;24.50;;;;;;;-2.65;100.00;102421.59;4906100;28;20086;-66
2022/03/08 06:03:40;;;;;;;51.38;26.02;;;;;;;-2.71;100.00;102429.84;4920682;28;20037;-66
2022/03/08 06:06:06;;;;;;;46.03;24.00;;;;;;;-2.72;100.00;102425.53;4915347;28;20035;-67
2022/03/08 06:08:31;;;;;;;42.13;24.10;;;;;;;-2.66;100.00;102425.16;4911840;28;20152;-66
2022/03/08 06:10:57;;;;;;;44.85;24.83;;;;;;;-2.64;100.00;102425.91;4921950;28;20035;-66
2022/03/08 06:13:22;;;;;;;45.50;25.13;;;;;;;-2.58;100.00;102427.38;4910551;28;20051;-66
2022/03/08 06:15:48;;;;;;;41.08;23.58;;;;;;;-2.60;100.00;102434.50;4923683;28;20054;-66
2022/03/08 06:18:13;;;;;;;46.13;25.50;;;;;;;-2.62;100.00;102440.84;4908661;28;20059;-66
2022/03/08 06:20:38;;;;;;;48.13;25.38;;;;;;;-2.51;100.00;102438.41;4928479;28;20344;-66
2022/03/08 06:23:04;;;;;;;45.10;25.00;;;;;;;-2.46;100.00;102437.22;4910008;28;20605;-67
2022/03/08 06:25:29;;;;;;;49.30;25.73;;;;;;;-2.24;100.00;102442.09;4923629;28;20121;-67
2022/03/08 06:27:55;;;;;;;42.92;25.60;;;;;;;-1.94;100.00;102434.09;4922290;28;20038;-67
2022/03/08 06:30:20;;;;;;;44.17;24.98;;;;;;;-1.61;100.00;102445.38;4902956;28;20086;-66
2022/03/08 06:32:46;;;;;;;46.85;24.73;;;;;;;-1.26;100.00;102446.66;4921992;28;20046;-66
2022/03/08 06:35:13;;;;;;;41.67;23.15;;;;;;;-0.86;100.00;102441.47;4908111;28;20046;-66
2022/03/08 06:37:38;;;;;;;35.63;21.42;;;;;;;-0.08;100.00;102446.03;4921141;28;20123;-65
2022/03/08 06:40:04;;;;;;;39.03;23.08;;;;;;;0.54;100.00;102438.19;4903755;28;20067;-66
2022/03/08 06:42:30;;;;;;;27.50;17.77;;;;;;;0.70;100.00;102444.09;4919444;28;20081;-66
2022/03/08 06:44:55;;;;;;;36.67;19.40;;;;;;;0.87;100.00;102440.22;4887563;28;20039;-67
2022/03/08 06:47:21;;;;;;;33.38;18.50;;;;;;;1.22;100.00;102450.06;4920284;28;21066;-67
2022/03/08 06:49:46;;;;;;;29.05;18.42;;;;;;;1.76;100.00;102443.44;4920591;28;20049;-66
2022/03/08 06:52:12;;;;;;;29.70;16.92;;;;;;;2.51;100.00;102449.13;4902460;28;20775;-67
2022/03/08 06:54:38;;;;;;;26.35;15.32;;;;;;;3.11;100.00;102442.50;4921036;28;20034;-67
2022/03/08 06:57:04;;;;;;;27.23;16.45;;;;;;;3.71;100.00;102426.91;4905821;28;20097;-67
2022/03/08 06:59:30;;;;;;;24.33;15.70;;;;;;;4.39;100.00;102443.34;4924500;28;20034;-67
2022/03/08 07:01:56;;;;;;;26.10;15.10;;;;;;;4.60;100.00;102442.41;4909104;28;20047;-67
2022/03/08 07:04:22;;;;;;;23.95;15.77;;;;;;;4.95;100.00;102445.50;4915281;28;20035;-67
2022/03/08 07:06:48;;;;;;;25.38;14.05;;;;;;;4.95;100.00;102449.97;4910899;28;20030;-67
2022/03/08 07:09:14;;;;;;;21.13;14.23;;;;;;;4.84;100.00;102444.75;4921550;28;20541;-67
2022/03/08 07:11:40;;;;;;;23.85;14.50;;;;;;;4.53;100.00;102456.31;4924530;28;20076;-67
2022/03/08 07:14:06;;;;;;;22.73;14.43;;;;;;;4.41;100.00;102449.34;4913082;28;20566;-67
2022/03/08 07:16:32;;;;;;;25.33;14.68;;;;;;;4.47;100.00;102456.84;4922304;28;20034;-67
2022/03/08 07:18:58;;;;;;;22.85;14.23;;;;;;;4.52;100.00;102459.94;4910447;28;20082;-67
2022/03/08 07:21:23;;;;;;;23.85;13.98;;;;;;;4.57;100.00;102456.88;4923669;28;20073;-67
2022/03/08 07:23:49;;;;;;;20.80;14.25;;;;;;;4.49;100.00;102460.22;4907285;28;20074;-67
2022/03/08 07:26:14;;;;;;;23.17;13.48;;;;;;;4.65;100.00;102466.88;4924628;28;20038;-67
2022/03/08 07:28:40;;;;;;;21.45;13.48;;;;;;;4.49;100.00;102457.56;4922188;28;20045;-67
2022/03/08 07:31:06;;;;;;;22.05;13.30;;;;;;;4.43;100.00;102454.56;4913507;28;20094;-67
2022/03/08 07:33:31;;;;;;;20.55;13.80;;;;;;;4.93;100.00;102460.81;4924884;28;20076;-67
2022/03/08 07:35:57;;;;;;;21.50;13.13;;;;;;;5.37;98.89;102458.66;4908297;28;20542;-67
2022/03/08 07:38:22;;;;;;;22.35;14.18;;;;;;;5.65;88.01;102459.66;4922278;28;20034;-67
2022/03/08 07:40:48;;;;;;;18.55;12.40;;;;;;;6.04;84.59;102466.81;4909933;28;20086;-67
2022/03/08 07:43:13;;;;;;;20.52;13.25;;;;;;;6.51;77.08;102470.34;4923227;28;20058;-67
2022/03/08 07:45:39;;;;;;;26.02;14.55;;;;;;;6.79;67.96;102481.09;4907267;28;20042;-67
2022/03/08 07:48:05;;;;;;;19.77;12.55;;;;;;;6.86;66.26;102469.66;4925722;28;20031;-67
2022/03/08 07:50:33;;;;;;;19.60;12.90;;;;;;;7.11;67.05;102476.13;4892286;28;20038;-68
2022/03/08 07:52:59;;;;;;;21.15;12.68;;;;;;;7.36;63.93;102474.56;4905567;28;20051;-68
2022/03/08 07:55:26;;;;;;;19.67;12.85;;;;;;;7.49;64.25;102462.63;4924645;28;20039;-68
2022/03/08 07:57:52;;;;;;;18.55;12.43;;;;;;;7.51;62.46;102471.34;4904992;28;20061;-69
2022/03/08 08:00:18;;;;;;;20.45;13.00;;;;;;;7.42;61.86;102475.81;4922485;28;20430;-69
2022/03/08 08:02:43;;;;;;;18.52;12.55;;;;;;;7.47;60.33;102475.34;4906452;28;20059;-69
2022/03/08 08:05:09;;;;;;;19.60;11.65;;;;;;;7.60;60.48;102473.13;4925445;28;20049;-69
2022/03/08 08:07:34;;;;;;;20.55;12.82;;;;;;;7.75;59.26;102468.88;4911235;28;20105;-69
2022/03/08 08:10:00;;;;;;;17.98;11.48;;;;;;;7.75;59.78;102466.22;4923972;28;20038;-69
2022/03/08 08:12:26;;;;;;;19.77;12.60;;;;;;;7.99;58.50;102464.72;4910798;28;20042;-68
2022/03/08 08:14:51;;;;;;;17.92;11.75;;;;;;;8.03;58.34;102460.72;4924665;28;20157;-68
2022/03/08 08:17:18;;;;;;;18.15;12.40;;;;;;;8.02;59.61;102462.56;4923058;28;20027;-69
2022/03/08 08:19:43;;;;;;;20.65;11.93;;;;;;;8.41;58.33;102458.66;4895255;28;20093;-69
2022/03/08 08:22:09;;;;;;;18.70;13.30;;;;;;;8.30;58.04;102452.53;4897046;28;20079;-69
2022/03/08 08:24:35;;;;;;;17.85;11.95;;;;;;;8.51;57.31;102460.22;4908875;28;22556;-67
2022/03/08 08:27:00;;;;;;;23.95;12.20;;;;;;;8.74;55.98;102465.03;4926618;28;20094;-68
2022/03/08 08:29:26;;;;;;;23.90;12.80;;;;;;;8.63;56.56;102465.31;4924963;28;20049;-68
2022/03/08 08:31:51;;;;;;;19.92;12.65;;;;;;;8.73;56.29;102474.94;4914335;28;20161;-68
2022/03/08 08:34:17;;;;;;;17.35;11.48;;;;;;;9.02;56.35;102466.53;4927727;28;20058;-68
2022/03/08 08:36:46;;;;;;;21.05;13.15;;;;;;;9.49;54.78;102465.94;4912485;28;20146;-68
2022/03/08 08:39:12;;;;;;;16.15;10.93;;;;;;;9.82;53.63;102465.13;4931012;28;20058;-68
2022/03/08 08:41:37;;;;;;;17.10;11.45;;;;;;;9.63;52.31;102461.75;4931526;28;20047;-67
2022/03/08 08:44:03;;;;;;;16.48;12.00;;;;;;;9.77;51.84;102462.94;4932974;28;20478;-67
2022/03/08 08:46:28;;;;;;;19.20;11.13;;;;;;;9.47;52.00;102467.09;4912781;28;20096;-68
2022/03/08 08:48:54;;;;;;;16.77;10.88;;;;;;;9.54;52.50;102468.13;4932119;28;20073;-67
2022/03/08 08:51:19;;;;;;;18.20;11.38;;;;;;;9.41;52.21;102467.78;4932755;28;20530;-68
2022/03/08 08:53:45;;;;;;;17.45;11.82;;;;;;;9.46;51.79;102462.75;4884539;28;20138;-68
2022/03/08 08:56:10;;;;;;;16.95;11.40;;;;;;;9.62;51.76;102465.47;4931194;28;20039;-68
2022/03/08 08:58:35;;;;;;;13.18;10.63;;;;;;;9.45;52.08;102459.22;4915625;28;20124;-68
2022/03/08 09:01:01;;;;;;;15.88;10.65;;;;;;;9.21;51.11;102462.69;4920850;28;20035;-68
2022/03/08 09:03:26;;;;;;;16.60;10.30;;;;;;;9.23;51.63;102455.31;4905318;28;20051;-68
2022/03/08 09:05:52;;;;;;;15.63;10.38;;;;;;;9.41;51.44;102457.88;4934276;28;20050;-68
2022/03/08 09:08:24;;;;;;;15.57;10.23;;;;;;;9.28;50.40;102444.91;4920381;28;20054;-68
2022/03/08 09:10:51;;;;;;;14.45;9.88;;;;;;;9.33;49.83;102441.69;4941351;28;20029;-67
2022/03/08 09:13:16;;;;;;;15.82;10.45;;;;;;;9.22;50.29;102442.84;4932516;28;20043;-68
2022/03/08 09:15:42;;;;;;;14.55;9.95;;;;;;;9.14;50.89;102439.31;4917241;28;20043;-68
2022/03/08 09:18:08;;;;;;;15.38;11.00;;;;;;;9.06;51.94;102437.47;4927197;28;20047;-68
2022/03/08 09:20:34;;;;;;;16.00;9.80;;;;;;;9.33;52.20;102428.25;4917787;28;20112;-68
2022/03/08 09:22:59;;;;;;;14.73;10.02;;;;;;;9.90;51.06;102424.72;4934825;28;20038;-68
2022/03/08 09:25:26;;;;;;;14.98;10.07;;;;;;;10.07;50.36;102426.41;4910824;28;20586;-68
2022/03/08 09:27:52;;;;;;;16.48;10.73;;;;;;;9.93;49.68;102424.41;4924255;28;20031;-68
2022/03/08 09:30:18;;;;;;;12.93;9.50;;;;;;;9.85;49.90;102421.72;4921761;28;20038;-68
2022/03/08 09:32:43;;;;;;;14.27;9.80;;;;;;;9.64;50.27;102409.63;4917398;28;20090;-68
2022/03/08 09:35:09;;;;;;;14.93;10.35;;;;;;;9.84;50.09;102409.28;4924472;28;20470;-70
2022/03/08 09:37:34;;;;;;;15.15;10.27;;;;;;;10.09;49.60;102410.09;4911712;28;20495;-68
2022/03/08 09:40:00;;;;;;;14.43;10.27;;;;;;;9.99;49.35;102394.13;4931323;28;20049;-68
2022/03/08 09:42:25;;;;;;;14.90;10.40;;;;;;;9.88;50.37;102405.25;4915861;28;20059;-67
2022/03/08 09:44:51;;;;;;;16.83;11.07;;;;;;;9.92;50.70;102402.03;4935123;28;20031;-68
2022/03/08 09:47:17;;;;;;;14.40;10.65;;;;;;;10.26;50.07;102404.53;4904889;28;20070;-69
2022/03/08 09:49:42;;;;;;;14.25;9.57;;;;;;;10.14;48.41;102397.78;4930162;28;20068;-69
2022/03/08 09:52:08;;;;;;;12.65;9.57;;;;;;;10.11;47.60;102390.06;4924610;28;20477;-69
2022/03/08 09:54:34;;;;;;;12.88;8.77;;;;;;;9.83;48.65;102383.38;4914478;28;20129;-68
2022/03/08 09:57:07;;;;;;;12.35;8.68;;;;;;;9.33;49.13;102382.53;4924500;28;20485;-69
2022/03/08 09:59:32;;;;;;;13.55;9.20;;;;;;;9.34;50.48;102384.25;4910217;28;20185;-69
2022/03/08 10:01:58;;;;;;;14.77;9.40;;;;;;;9.18;50.62;102385.06;4926469;28;20035;-70
2022/03/08 10:04:23;;;;;;;19.05;9.55;;;;;;;9.47;50.30;102381.03;4911064;28;20066;-70
2022/03/08 10:06:50;;;;;;;10.98;7.82;;;;;;;9.88;48.23;102389.09;4930089;28;20046;-69
2022/03/08 10:09:17;;;;;;;12.00;8.10;;;;;;;9.61;48.25;102388.44;4909922;28;20115;-70
2022/03/08 10:11:43;;;;;;;14.57;8.82;;;;;;;9.73;48.57;102379.03;4928787;28;20034;-68
2022/03/08 10:14:14;;;;;;;16.48;8.18;;;;;;;9.98;47.91;102368.22;4930470;28;20061;-69
2022/03/08 10:16:42;;;;;;;10.00;7.05;;;;;;;9.90;47.63;102365.53;4914767;28;20070;-69
2022/03/08 10:19:09;;;;;;;14.02;8.15;;;;;;;10.09;46.59;102372.41;4916702;28;20118;-69
2022/03/08 10:21:43;;;;;;;12.55;8.63;;;;;;;10.23;45.70;102364.44;4913989;28;20058;-69
2022/03/08 10:24:15;;;;;;;12.25;8.50;;;;;;;10.24;45.71;102367.97;4923191;28;20054;-71
2022/03/08 10:26:51;;;;;;;11.93;7.88;;;;;;;10.13;44.28;102363.78;4905931;28;20055;-68
2022/03/08 10:29:31;;;;;;;9.63;7.30;;;;;;;10.09;45.58;102365.16;4921596;28;20023;-73
2022/03/08 10:32:11;;;;;;;8.32;6.10;;;;;;;10.34;43.81;102355.16;4884805;28;20185;-69
2022/03/08 10:34:38;;;;;;;10.30;7.10;;;;;;;10.13;44.40;102355.72;4925417;28;20126;-68
2022/03/08 10:37:07;;;;;;;11.13;7.20;;;;;;;10.32;45.10;102353.66;4906432;28;20058;-68
2022/03/08 10:39:33;;;;;;;10.25;6.60;;;;;;;10.83;44.81;102346.00;4922413;28;20039;-69
2022/03/08 10:42:00;;;;;;;12.70;6.43;;;;;;;10.77;43.35;102344.00;4939341;28;20382;-69
2022/03/08 10:44:40;;;;;;;9.00;6.25;;;;;;;11.03;41.93;102341.84;4921923;28;20110;-69
2022/03/08 10:47:11;;;;;;;9.55;6.60;;;;;;;11.37;42.48;102338.72;4922224;28;20034;-70
2022/03/08 10:49:47;;;;;;;10.27;7.45;;;;;;;11.29;42.19;102336.06;4916308;28;20411;-69
2022/03/08 10:52:13;;;;;;;11.00;6.53;;;;;;;11.32;42.08;102342.97;4944145;28;20403;-69
2022/03/08 10:54:38;;;;;;;9.05;6.00;;;;;;;11.30;41.17;102350.38;4913521;28;20070;-69
2022/03/08 10:57:04;;;;;;;8.77;5.80;;;;;;;11.31;40.29;102339.44;4929734;28;20161;-69
2022/03/08 10:59:29;;;;;;;9.45;5.60;;;;;;;11.37;39.48;102344.13;4913375;28;20055;-69
2022/03/08 11:01:55;;;;;;;9.13;6.03;;;;;;;11.39;40.29;102341.22;4928989;28;20291;-69
2022/03/08 11:04:22;;;;;;;9.10;6.05;;;;;;;11.32;39.74;102337.56;4929681;28;20034;-69